Time;durP1;ratioP1;P1;durP2;ratioP2;P2;SDS_P1;SDS_P2;PMS_P1;PMS_P2;Temp;Humidity;BMP_temperature;BMP_pressure;BME280_temperature;BME280_humidity;BME280_pressure;Samples;Min_cycle;Max_cycle;Signal;HPM_P1;HPM_P2
2021/01/09 00:00:59;;;;;;;19.40;9.93;;;-0.30;96.30;;;;;;5013796;28;20064;-89
2021/01/09 00:03:25;;;;;;;18.77;9.65;;;-0.30;96.30;;;;;;5021010;28;20069;-89
2021/01/09 00:05:52;;;;;;;22.60;9.70;;;-0.40;96.30;;;;;;5027496;28;20479;-90
2021/01/09 00:08:18;;;;;;;18.30;9.48;;;-0.40;96.40;;;;;;5013933;28;20022;-90
2021/01/09 00:10:44;;;;;;;17.77;8.75;;;-0.50;96.40;;;;;;5020146;28;20037;-88
2021/01/09 00:13:09;;;;;;;19.55;9.00;;;-0.60;96.50;;;;;;5030903;28;20034;-89
2021/01/09 00:15:35;;;;;;;19.33;9.90;;;-0.60;96.50;;;;;;5016498;28;20019;-90
2021/01/09 00:18:00;;;;;;;21.98;11.13;;;-0.60;96.60;;;;;;5019252;28;20034;-90
2021/01/09 00:20:26;;;;;;;20.38;10.60;;;-0.60;96.70;;;;;;5013460;28;20038;-89
2021/01/09 00:22:51;;;;;;;20.67;10.38;;;-0.70;96.70;;;;;;5016335;28;20041;-89
2021/01/09 00:25:17;;;;;;;20.75;10.55;;;-0.70;96.80;;;;;;5026725;28;20569;-90
2021/01/09 00:27:44;;;;;;;22.08;10.68;;;-0.60;96.90;;;;;;5026125;28;20441;-89
2021/01/09 00:30:10;;;;;;;19.58;9.93;;;-0.60;97.00;;;;;;5026901;28;20076;-89
2021/01/09 00:32:36;;;;;;;18.30;9.45;;;-0.50;97.10;;;;;;5021596;28;20029;-90
2021/01/09 00:35:02;;;;;;;24.98;10.73;;;-0.50;97.10;;;;;;5021477;28;20025;-89
2021/01/09 00:37:28;;;;;;;19.20;9.35;;;-0.40;97.40;;;;;;5022238;28;20470;-90
2021/01/09 00:39:54;;;;;;;21.52;11.45;;;-0.40;97.10;;;;;;5013058;28;20022;-89
2021/01/09 00:42:19;;;;;;;20.35;10.07;;;-0.30;97.10;;;;;;5025391;28;20095;-90
2021/01/09 00:44:45;;;;;;;23.90;10.38;;;-0.20;97.10;;;;;;5012704;28;20077;-90
2021/01/09 00:47:10;;;;;;;21.30;9.60;;;-0.20;97.00;;;;;;5025392;28;20034;-90
2021/01/09 00:49:36;;;;;;;21.75;9.90;;;-0.20;97.00;;;;;;5013043;28;20037;-89
2021/01/09 00:52:01;;;;;;;21.67;10.40;;;-0.10;97.00;;;;;;5024961;28;20033;-89
2021/01/09 00:54:27;;;;;;;20.60;9.85;;;-0.10;97.00;;;;;;5020262;28;20022;-90
2021/01/09 00:56:53;;;;;;;23.42;10.25;;;0.00;96.90;;;;;;5012172;28;20478;-89
2021/01/09 00:59:19;;;;;;;21.65;10.48;;;0.00;96.90;;;;;;5012965;28;20022;-90
2021/01/09 01:01:45;;;;;;;20.15;10.38;;;0.00;96.80;;;;;;5022582;28;20052;-89
2021/01/09 01:04:11;;;;;;;19.75;10.35;;;0.00;96.70;;;;;;5025719;28;20033;-90
2021/01/09 01:06:36;;;;;;;21.02;9.93;;;0.00;96.70;;;;;;5003822;28;20030;-89
2021/01/09 01:09:02;;;;;;;21.67;10.32;;;0.00;96.60;;;;;;5012436;28;20053;-89
2021/01/09 01:11:29;;;;;;;22.45;11.68;;;-0.10;96.60;;;;;;5017525;28;20432;-89
2021/01/09 01:13:55;;;;;;;23.20;10.50;;;-0.10;96.70;;;;;;5023749;28;20509;-90
2021/01/09 01:16:22;;;;;;;23.35;11.32;;;-0.10;96.70;;;;;;5012848;28;20077;-89
2021/01/09 01:18:48;;;;;;;20.85;10.18;;;-0.20;96.70;;;;;;5015736;28;20042;-89
2021/01/09 01:21:14;;;;;;;21.67;10.63;;;-0.20;96.70;;;;;;5013378;28;20559;-89
2021/01/09 01:23:39;;;;;;;22.83;10.38;;;-0.20;96.70;;;;;;5027202;28;20129;-89
2021/01/09 01:26:11;;;;;;;23.10;10.70;;;-0.20;96.70;;;;;;5012967;28;20511;-89
2021/01/09 01:28:37;;;;;;;21.63;10.48;;;-0.20;96.70;;;;;;5016418;28;20437;-89
2021/01/09 01:31:03;;;;;;;24.35;11.82;;;-0.20;96.70;;;;;;5014798;28;20017;-90
2021/01/09 01:33:29;;;;;;;21.38;10.82;;;-0.30;96.70;;;;;;5020418;28;20117;-88
2021/01/09 01:35:54;;;;;;;22.73;10.55;;;-0.30;96.70;;;;;;5013391;28;20125;-90
2021/01/09 01:38:20;;;;;;;24.20;10.75;;;-0.30;96.70;;;;;;5011037;28;20442;-89
2021/01/09 01:40:45;;;;;;;23.95;11.93;;;-0.30;96.70;;;;;;5009093;28;20027;-89
2021/01/09 01:43:12;;;;;;;19.52;9.60;;;-0.40;96.70;;;;;;5013373;28;20033;-90
2021/01/09 01:45:39;;;;;;;20.92;10.50;;;-0.30;96.80;;;;;;5012392;28;20109;-90
2021/01/09 01:48:10;;;;;;;21.75;9.93;;;-0.40;96.70;;;;;;5012461;28;20084;-90
2021/01/09 01:50:37;;;;;;;17.58;9.30;;;-0.40;96.60;;;;;;5012334;28;20513;-90
2021/01/09 01:53:05;;;;;;;20.23;9.80;;;-0.50;96.60;;;;;;5023104;28;20044;-89
2021/01/09 01:55:31;;;;;;;17.70;9.43;;;-0.60;96.60;;;;;;5014806;28;20026;-89
2021/01/09 01:57:57;;;;;;;22.80;10.05;;;-0.60;96.60;;;;;;5016371;28;20029;-89
2021/01/09 02:00:27;;;;;;;21.67;9.60;;;-0.70;96.60;;;;;;5012401;28;20065;-90
2021/01/09 02:02:53;;;;;;;21.40;10.52;;;-0.80;96.70;;;;;;5026116;28;20692;-90
2021/01/09 02:05:23;;;;;;;17.85;9.73;;;-0.80;96.70;;;;;;5012080;28;20030;-90
2021/01/09 02:07:52;;;;;;;24.10;10.07;;;-0.90;96.80;;;;;;5013584;28;20485;-89
2021/01/09 02:10:19;;;;;;;24.25;11.23;;;-0.90;96.80;;;;;;5008097;28;20033;-90
2021/01/09 02:13:02;;;;;;;20.80;9.88;;;-0.90;96.80;;;;;;5011341;28;20033;-90
2021/01/09 02:15:29;;;;;;;18.85;9.45;;;-1.00;96.80;;;;;;5012453;28;20025;-90
2021/01/09 02:17:55;;;;;;;19.38;10.00;;;-1.00;96.90;;;;;;5010873;28;20461;-89
2021/01/09 02:20:23;;;;;;;19.25;9.02;;;-1.10;96.80;;;;;;5018751;28;20069;-89
2021/01/09 02:22:52;;;;;;;15.27;8.65;;;-1.10;96.80;;;;;;5020682;28;20042;-91
2021/01/09 02:25:18;;;;;;;21.10;8.38;;;-1.10;96.80;;;;;;5033005;28;20493;-91
2021/01/09 02:27:43;;;;;;;18.83;9.00;;;-1.20;97.10;;;;;;5022913;28;20073;-90
2021/01/09 02:30:12;;;;;;;21.00;9.10;;;-1.20;96.90;;;;;;5012375;28;20524;-88
2021/01/09 02:33:00;;;;;;;21.92;9.25;;;-1.20;97.00;;;;;;5013483;28;20042;-90
2021/01/09 02:35:27;;;;;;;17.30;8.65;;;-1.20;97.00;;;;;;5012600;28;20033;-91
2021/01/09 02:37:54;;;;;;;20.33;8.77;;;-1.30;97.00;;;;;;5020306;28;20037;-92
2021/01/09 02:40:20;;;;;;;19.80;8.70;;;-1.30;97.10;;;;;;5024755;28;20041;-91
2021/01/09 02:42:46;;;;;;;13.98;7.35;;;-1.30;97.10;;;;;;5025955;28;20069;-92
2021/01/09 02:45:12;;;;;;;15.27;8.27;;;-1.30;97.10;;;;;;5013580;28;20049;-93
2021/01/09 02:47:38;;;;;;;13.43;6.90;;;-1.30;97.00;;;;;;5021776;28;20168;-92
2021/01/09 02:50:05;;;;;;;13.23;6.78;;;-1.40;97.00;;;;;;5014953;28;20466;-92
2021/01/09 02:52:30;;;;;;;13.90;7.22;;;-1.40;97.00;;;;;;5016113;28;20156;-92
2021/01/09 02:54:56;;;;;;;14.88;7.63;;;-1.50;97.00;;;;;;5014002;28;20108;-92
2021/01/09 02:57:21;;;;;;;17.05;8.35;;;-1.50;97.00;;;;;;5014756;28;20505;-90
2021/01/09 02:59:47;;;;;;;17.65;8.05;;;-1.50;97.00;;;;;;5015563;28;20036;-89
2021/01/09 03:02:12;;;;;;;14.82;8.30;;;-1.50;97.00;;;;;;5014802;28;20026;-90
2021/01/09 03:04:38;;;;;;;15.20;7.53;;;-1.60;97.00;;;;;;5019912;28;20042;-90
2021/01/09 03:07:03;;;;;;;58.83;8.50;;;-1.60;97.00;;;;;;5014636;28;20454;-90
2021/01/09 03:09:29;;;;;;;90.97;8.48;;;-1.60;97.00;;;;;;5017641;28;20570;-90
2021/01/09 03:11:54;;;;;;;26.27;7.60;;;-1.70;97.00;;;;;;5012842;28;20026;-93
2021/01/09 03:14:20;;;;;;;13.38;7.28;;;-1.70;97.10;;;;;;5027114;28;20116;-93
2021/01/09 03:16:46;;;;;;;13.13;6.78;;;-1.70;97.00;;;;;;5010288;28;20028;-92
2021/01/09 03:19:11;;;;;;;17.27;7.60;;;-1.70;97.10;;;;;;5030763;28;20042;-92
2021/01/09 03:21:37;;;;;;;16.77;7.53;;;-1.70;97.10;;;;;;5016513;28;20025;-92
2021/01/09 03:24:02;;;;;;;14.45;7.57;;;-1.70;97.10;;;;;;5014520;28;20394;-93
2021/01/09 03:26:28;;;;;;;16.20;7.43;;;-1.70;97.10;;;;;;5030717;28;20386;-92
2021/01/09 03:28:54;;;;;;;15.02;6.95;;;-1.70;97.10;;;;;;5024369;28;20038;-92
2021/01/09 03:31:20;;;;;;;17.38;8.27;;;-1.70;97.20;;;;;;5015784;28;20030;-92
2021/01/09 03:33:45;;;;;;;16.17;7.07;;;-1.70;97.20;;;;;;5016635;28;20152;-93
2021/01/09 03:36:11;;;;;;;19.98;8.20;;;-1.70;97.20;;;;;;5013923;28;20108;-92
2021/01/09 03:38:37;;;;;;;17.67;8.10;;;-1.70;97.20;;;;;;5019180;28;20116;-92
2021/01/09 03:41:03;;;;;;;18.33;8.55;;;-1.80;97.20;;;;;;5018185;28;20021;-93
2021/01/09 03:43:28;;;;;;;16.38;8.35;;;-1.70;97.20;;;;;;5014184;28;20060;-92
2021/01/09 03:45:54;;;;;;;18.05;7.78;;;-1.80;97.40;;;;;;5019684;28;20524;-92
2021/01/09 03:48:19;;;;;;;16.73;8.35;;;-1.80;97.10;;;;;;5013234;28;20038;-92
2021/01/09 03:50:45;;;;;;;18.80;8.18;;;-1.80;97.10;;;;;;5014368;28;20054;-92
2021/01/09 03:53:10;;;;;;;16.63;8.20;;;-1.80;97.20;;;;;;5007999;28;20026;-92
2021/01/09 03:55:36;;;;;;;20.90;9.68;;;-1.80;97.20;;;;;;5005957;28;20030;-92
2021/01/09 03:58:02;;;;;;;20.77;8.48;;;-1.80;97.30;;;;;;5014046;28;20030;-93
2021/01/09 04:00:27;;;;;;;20.33;9.02;;;-1.80;97.50;;;;;;5025336;28;20053;-92
2021/01/09 04:02:53;;;;;;;23.15;9.90;;;-1.80;97.30;;;;;;5014861;28;20038;-92
2021/01/09 04:05:19;;;;;;;21.88;9.13;;;-1.70;97.30;;;;;;5014541;28;20120;-91
2021/01/09 04:07:45;;;;;;;15.95;7.20;;;-1.80;97.20;;;;;;5025589;28;20125;-91
2021/01/09 04:10:10;;;;;;;18.67;7.65;;;-1.80;97.20;;;;;;5026391;28;20482;-92
2021/01/09 04:12:36;;;;;;;17.85;7.50;;;-1.80;97.20;;;;;;5013609;28;20090;-91
2021/01/09 04:15:03;;;;;;;20.02;8.23;;;-1.80;97.20;;;;;;5009048;28;20060;-92
2021/01/09 04:17:29;;;;;;;19.35;8.32;;;-1.90;97.20;;;;;;5011532;28;20490;-91
2021/01/09 04:19:54;;;;;;;17.98;7.30;;;-1.90;97.20;;;;;;5015879;28;20049;-92
2021/01/09 04:22:20;;;;;;;19.75;8.18;;;-1.60;98.30;;;;;;5017935;28;20038;-91
2021/01/09 04:24:45;;;;;;;18.17;8.45;;;-1.40;98.30;;;;;;5013544;28;20029;-89
2021/01/09 04:27:11;;;;;;;20.02;7.85;;;-1.20;97.80;;;;;;5011642;28;20152;-89
2021/01/09 04:29:36;;;;;;;20.88;9.05;;;-1.20;97.40;;;;;;5028642;28;20032;-88
2021/01/09 04:32:02;;;;;;;21.13;8.77;;;-1.10;97.00;;;;;;5018801;28;20030;-88
2021/01/09 04:34:28;;;;;;;20.42;9.63;;;-1.10;96.80;;;;;;5019856;28;20041;-88
2021/01/09 04:36:53;;;;;;;19.90;8.43;;;-1.20;96.70;;;;;;5017464;28;20398;-90
2021/01/09 04:39:20;;;;;;;20.17;8.23;;;-1.20;96.60;;;;;;5017199;28;20030;-90
2021/01/09 04:41:45;;;;;;;21.98;8.70;;;-1.20;96.60;;;;;;5016360;28;20034;-89
2021/01/09 04:44:12;;;;;;;23.00;8.80;;;-1.20;96.60;;;;;;5014062;28;20042;-89
2021/01/09 04:46:50;;;;;;;24.10;9.07;;;-1.20;96.60;;;;;;5020693;28;20030;-90
2021/01/09 04:49:18;;;;;;;20.67;9.23;;;-1.30;96.50;;;;;;5014073;28;20029;-88
2021/01/09 04:51:44;;;;;;;23.38;9.95;;;-1.30;96.50;;;;;;5011676;28;20032;-89
2021/01/09 04:54:15;;;;;;;25.38;9.57;;;-1.40;96.60;;;;;;5013466;28;20026;-89
2021/01/09 04:56:42;;;;;;;35.33;13.00;;;-1.40;96.80;;;;;;5011382;28;20386;-88
2021/01/09 04:59:08;;;;;;;96.32;13.35;;;-1.50;96.80;;;;;;5013159;28;20034;-88
2021/01/09 05:01:34;;;;;;;62.45;11.95;;;-1.50;97.00;;;;;;5008455;28;20071;-89
2021/01/09 05:04:00;;;;;;;73.65;11.85;;;-1.50;97.10;;;;;;4993390;28;20513;-89
2021/01/09 05:06:25;;;;;;;48.80;11.95;;;-1.40;97.20;;;;;;5026286;28;20030;-89
2021/01/09 05:08:51;;;;;;;57.05;11.93;;;-1.40;97.20;;;;;;5012987;28;20033;-89
2021/01/09 05:11:20;;;;;;;50.35;10.85;;;-1.40;97.20;;;;;;5012151;28;20030;-89
2021/01/09 05:13:47;;;;;;;65.65;10.80;;;-1.40;97.20;;;;;;5008608;28;20034;-89
2021/01/09 05:16:13;;;;;;;42.92;10.00;;;-1.40;97.20;;;;;;5012659;28;20022;-90
2021/01/09 05:18:40;;;;;;;36.70;10.55;;;-1.40;97.20;;;;;;5015689;28;20065;-89
2021/01/09 05:21:07;;;;;;;55.10;11.52;;;-1.50;97.20;;;;;;5012069;28;20028;-89
2021/01/09 05:23:49;;;;;;;78.45;12.05;;;-1.50;97.20;;;;;;5019649;28;20042;-91
2021/01/09 05:26:16;;;;;;;35.13;9.87;;;-1.50;97.20;;;;;;5009138;28;20026;-90
2021/01/09 05:28:45;;;;;;;38.10;10.25;;;-1.50;97.20;;;;;;4997040;28;20101;-89
2021/01/09 05:31:11;;;;;;;34.90;9.93;;;-1.50;97.50;;;;;;5014755;28;20025;-90
2021/01/09 05:33:36;;;;;;;31.75;10.93;;;-1.60;97.20;;;;;;5011181;28;20023;-90
2021/01/09 05:36:04;;;;;;;58.42;10.32;;;-1.60;97.30;;;;;;5011899;28;20034;-89
2021/01/09 05:38:36;;;;;;;52.55;11.25;;;-1.60;97.30;;;;;;5007582;28;20028;-89
2021/01/09 05:41:04;;;;;;;89.78;13.50;;;-1.60;97.30;;;;;;5020151;28;20030;-89
2021/01/09 05:43:30;;;;;;;58.38;12.52;;;-1.60;97.30;;;;;;5021205;28;20391;-90
2021/01/09 05:45:56;;;;;;;82.90;14.23;;;-1.60;97.30;;;;;;5012156;28;20029;-90
2021/01/09 05:48:21;;;;;;;64.38;13.23;;;-1.70;97.30;;;;;;5012141;28;20040;-90
2021/01/09 05:50:48;;;;;;;65.97;12.98;;;-1.70;97.40;;;;;;5011840;28;20101;-90
2021/01/09 05:53:36;;;;;;;112.13;14.73;;;-1.70;97.40;;;;;;5011552;28;20124;-89
2021/01/09 05:56:03;;;;;;;79.65;13.40;;;-1.70;97.40;;;;;;5013057;28;20030;-89
2021/01/09 05:58:30;;;;;;;71.38;14.10;;;-1.70;97.40;;;;;;5014449;28;20030;-90
2021/01/09 06:00:57;;;;;;;71.65;13.32;;;-1.70;97.40;;;;;;5009413;28;20033;-90
2021/01/09 06:03:36;;;;;;;68.68;14.48;;;-1.70;97.30;;;;;;5013804;28;20038;-88
2021/01/09 06:06:26;;;;;;;77.88;12.63;;;-1.70;97.30;;;;;;5011561;28;20024;-89
2021/01/09 06:09:05;;;;;;;56.13;11.98;;;-1.70;97.20;;;;;;5025092;28;20037;-90
2021/01/09 06:11:35;;;;;;;66.20;12.15;;;-1.80;97.20;;;;;;5025955;28;20026;-91
2021/01/09 06:14:02;;;;;;;45.17;12.57;;;-1.90;97.10;;;;;;5013521;28;20022;-91
2021/01/09 06:16:31;;;;;;;39.78;10.10;;;-2.00;97.00;;;;;;5028163;28;20029;-90
2021/01/09 06:18:58;;;;;;;36.55;10.13;;;-2.10;97.00;;;;;;5017221;28;20050;-91
2021/01/09 06:21:25;;;;;;;23.05;8.63;;;-2.10;97.10;;;;;;5025401;28;20029;-92
2021/01/09 06:23:53;;;;;;;18.95;8.48;;;-2.20;97.10;;;;;;5018923;28;20433;-91
2021/01/09 06:26:19;;;;;;;31.60;10.50;;;-2.20;97.20;;;;;;5015506;28;20501;-90
2021/01/09 06:28:52;;;;;;;26.63;9.43;;;-2.30;97.30;;;;;;5029143;28;20060;-90
2021/01/09 06:31:20;;;;;;;23.10;10.23;;;-2.30;97.30;;;;;;5017706;28;20084;-90
2021/01/09 06:33:48;;;;;;;29.20;9.52;;;-2.30;97.40;;;;;;5021579;28;20025;-91
2021/01/09 06:36:14;;;;;;;20.38;10.00;;;-2.30;97.40;;;;;;5012144;28;20042;-87
2021/01/09 06:38:45;;;;;;;24.70;9.07;;;-2.30;97.40;;;;;;5017419;28;20063;-88
2021/01/09 06:41:14;;;;;;;29.20;9.77;;;-2.30;97.40;;;;;;5027711;28;20109;-88
2021/01/09 06:43:51;;;;;;;20.38;8.15;;;-2.30;97.40;;;;;;5017039;28;20034;-89
2021/01/09 06:46:43;;;;;;;20.38;8.05;;;-2.30;97.40;;;;;;5015553;28;20022;-90
2021/01/09 06:49:19;;;;;;;24.50;8.07;;;-2.30;97.40;;;;;;5015302;28;20046;-89
2021/01/09 06:52:06;;;;;;;26.13;8.23;;;-2.30;97.40;;;;;;5025112;28;20026;-90
2021/01/09 06:54:44;;;;;;;20.58;8.38;;;-2.30;97.30;;;;;;5032362;28;20389;-89
2021/01/09 06:57:11;;;;;;;22.38;9.65;;;-2.40;97.30;;;;;;5010072;28;20036;-90
2021/01/09 06:59:41;;;;;;;20.88;9.70;;;-2.40;97.40;;;;;;5012275;28;20018;-89
2021/01/09 07:02:17;;;;;;;19.85;9.05;;;-2.40;97.50;;;;;;5014864;28;20509;-89
2021/01/09 07:04:53;;;;;;;30.80;9.90;;;-2.40;97.50;;;;;;5015469;28;20037;-89
2021/01/09 07:07:36;;;;;;;23.77;8.98;;;-2.30;97.70;;;;;;5031780;28;20374;-89
2021/01/09 07:10:04;;;;;;;20.58;9.27;;;-2.30;97.70;;;;;;5015072;28;20181;-88
2021/01/09 07:12:30;;;;;;;19.27;8.43;;;-2.20;97.70;;;;;;5014509;28;20033;-88
2021/01/09 07:15:07;;;;;;;22.83;10.48;;;-2.30;97.60;;;;;;5014373;28;20022;-89
2021/01/09 07:17:35;;;;;;;24.25;10.88;;;-2.20;97.60;;;;;;5029965;28;20030;-89
2021/01/09 07:20:05;;;;;;;31.00;10.25;;;-2.20;97.60;;;;;;5014764;28;20042;-89
2021/01/09 07:22:32;;;;;;;19.83;8.68;;;-2.20;97.50;;;;;;5022462;28;20474;-89
2021/01/09 07:25:00;;;;;;;19.25;8.88;;;-2.20;97.50;;;;;;5014472;28;20021;-89
2021/01/09 07:27:40;;;;;;;23.27;9.80;;;-2.20;97.50;;;;;;5013692;28;20497;-89
2021/01/09 07:30:07;;;;;;;20.98;8.93;;;-2.20;97.50;;;;;;5012162;28;20033;-89
2021/01/09 07:32:47;;;;;;;29.83;9.38;;;-2.20;97.50;;;;;;5016580;28;20026;-88
2021/01/09 07:35:18;;;;;;;19.88;9.38;;;-2.20;97.60;;;;;;5012724;28;20025;-88
2021/01/09 07:37:44;;;;;;;20.00;9.48;;;-2.20;97.60;;;;;;5022125;28;20034;-88
2021/01/09 07:40:15;;;;;;;18.52;9.35;;;-2.20;97.60;;;;;;5013030;28;20395;-88
2021/01/09 07:42:41;;;;;;;15.73;8.27;;;-2.10;97.60;;;;;;5010317;28;20093;-88
2021/01/09 07:45:09;;;;;;;15.95;8.25;;;-2.20;97.40;;;;;;5013744;28;20029;-88
2021/01/09 07:47:40;;;;;;;16.17;7.28;;;-2.20;97.30;;;;;;5012200;28;20018;-88
2021/01/09 07:50:10;;;;;;;16.50;7.45;;;-2.30;97.10;;;;;;5009793;28;20017;-89
2021/01/09 07:52:36;;;;;;;13.05;6.78;;;-2.40;97.10;;;;;;5014919;28;20117;-88
2021/01/09 07:55:04;;;;;;;12.82;6.78;;;-2.50;97.10;;;;;;5025177;28;20076;-89
2021/01/09 07:57:30;;;;;;;15.15;7.13;;;-2.60;97.20;;;;;;5028345;28;20034;-89
2021/01/09 07:59:56;;;;;;;15.18;7.68;;;-2.60;97.30;;;;;;5011635;28;20471;-89
2021/01/09 08:02:30;;;;;;;15.45;7.75;;;-2.60;97.40;;;;;;5013251;28;20045;-88
2021/01/09 08:05:09;;;;;;;15.65;7.13;;;-2.50;97.50;;;;;;5013468;28;20128;-89
2021/01/09 08:07:36;;;;;;;14.48;7.95;;;-2.50;97.50;;;;;;5002217;28;20052;-88
2021/01/09 08:10:24;;;;;;;14.52;7.43;;;-2.50;97.60;;;;;;5013889;28;20026;-89
2021/01/09 08:12:54;;;;;;;17.52;7.93;;;-2.50;97.70;;;;;;5015091;28;20102;-88
2021/01/09 08:15:20;;;;;;;64.93;23.00;;;-2.40;97.80;;;;;;5014161;28;20037;-88
2021/01/09 08:17:46;;;;;;;28.90;12.65;;;-2.30;97.80;;;;;;5014615;28;20030;-87
2021/01/09 08:20:13;;;;;;;25.85;11.38;;;-2.20;97.80;;;;;;5011323;28;20134;-88
2021/01/09 08:22:54;;;;;;;21.48;10.50;;;-2.20;97.80;;;;;;5014730;28;20371;-87
2021/01/09 08:25:21;;;;;;;19.83;9.23;;;-2.10;97.80;;;;;;5029542;28;20064;-87
2021/01/09 08:27:49;;;;;;;18.67;8.73;;;-2.00;97.80;;;;;;5013522;28;20032;-88
2021/01/09 08:30:18;;;;;;;22.20;9.82;;;-2.00;97.80;;;;;;5009933;28;20424;-88
2021/01/09 08:32:44;;;;;;;20.95;9.90;;;-1.90;97.90;;;;;;5012714;28;20030;-87
2021/01/09 08:35:10;;;;;;;22.63;10.65;;;-1.80;97.90;;;;;;4995772;28;20084;-88
2021/01/09 08:37:36;;;;;;;24.02;10.70;;;-1.70;97.90;;;;;;5009478;28;20024;-88
2021/01/09 08:40:16;;;;;;;18.08;9.35;;;-1.70;97.90;;;;;;5010739;28;20029;-89
2021/01/09 08:42:55;;;;;;;19.33;9.65;;;-1.60;97.90;;;;;;5009834;28;20160;-89
2021/01/09 08:45:37;;;;;;;19.58;9.65;;;-1.40;97.90;;;;;;5004695;28;20060;-89
2021/01/09 08:48:03;;;;;;;18.45;9.07;;;-1.30;98.00;;;;;;5012930;28;20029;-89
2021/01/09 08:50:31;;;;;;;18.30;9.90;;;-1.20;97.90;;;;;;5012674;28;20038;-88
2021/01/09 08:53:01;;;;;;;20.58;10.00;;;-1.10;97.90;;;;;;5013146;28;20033;-88
2021/01/09 08:55:29;;;;;;;18.50;10.68;;;-1.00;97.90;;;;;;5009156;28;20559;-88
2021/01/09 08:57:57;;;;;;;20.58;11.45;;;-0.90;97.80;;;;;;5005337;28;20497;-89
2021/01/09 09:00:22;;;;;;;16.98;10.00;;;-0.80;97.80;;;;;;5012089;28;20041;-88
2021/01/09 09:02:48;;;;;;;20.13;10.02;;;-0.80;97.70;;;;;;5012152;28;20107;-89
2021/01/09 09:05:14;;;;;;;21.73;10.48;;;-0.60;97.70;;;;;;5013848;28;20446;-88
2021/01/09 09:07:44;;;;;;;21.90;10.98;;;-0.60;97.70;;;;;;5013197;28;20529;-88
2021/01/09 09:10:13;;;;;;;19.42;10.48;;;-0.50;97.70;;;;;;5013449;28;20045;-88
2021/01/09 09:12:39;;;;;;;19.92;11.35;;;-0.40;97.60;;;;;;5012248;28;20026;-88
2021/01/09 09:15:10;;;;;;;21.27;10.93;;;-0.40;97.60;;;;;;5009432;28;20033;-88
2021/01/09 09:17:37;;;;;;;23.00;11.57;;;-0.30;97.50;;;;;;5001031;28;20034;-89
2021/01/09 09:20:03;;;;;;;20.30;11.18;;;-0.30;97.40;;;;;;5008507;28;20426;-90
2021/01/09 09:22:29;;;;;;;18.00;10.32;;;-0.30;97.30;;;;;;5009978;28;20486;-89
2021/01/09 09:24:55;;;;;;;21.85;11.30;;;-0.20;97.30;;;;;;5010736;28;20038;-90
2021/01/09 09:27:25;;;;;;;20.98;12.35;;;-0.20;97.30;;;;;;5007928;28;20071;-91
2021/01/09 09:30:13;;;;;;;20.63;11.48;;;-0.30;97.30;;;;;;5007091;28;20058;-90
2021/01/09 09:32:43;;;;;;;19.60;11.48;;;-0.20;97.30;;;;;;5006958;28;20026;-91
2021/01/09 09:35:26;;;;;;;23.48;11.85;;;-0.20;97.30;;;;;;5018773;28;20025;-90
2021/01/09 09:37:53;;;;;;;24.83;12.93;;;-0.20;97.30;;;;;;5010401;28;20036;-90
2021/01/09 09:40:36;;;;;;;24.13;12.70;;;-0.20;97.30;;;;;;5005503;28;20034;-90
2021/01/09 09:43:13;;;;;;;23.33;12.43;;;-0.20;97.20;;;;;;5008742;28;20498;-91
2021/01/09 09:45:38;;;;;;;25.70;13.40;;;-0.20;97.30;;;;;;5013774;28;20034;-91
2021/01/09 09:48:04;;;;;;;27.38;12.95;;;-0.20;97.20;;;;;;5007812;28;20031;-91
2021/01/09 09:50:33;;;;;;;27.40;13.57;;;-0.20;97.30;;;;;;5013893;28;20037;-90
2021/01/09 09:53:00;;;;;;;27.42;14.50;;;-0.20;97.30;;;;;;5026849;28;20034;-91
2021/01/09 09:55:26;;;;;;;31.25;14.73;;;-0.10;97.40;;;;;;5016393;28;20040;-91
2021/01/09 09:58:11;;;;;;;28.30;14.25;;;-0.10;97.30;;;;;;5012494;28;20030;-91
2021/01/09 10:00:42;;;;;;;26.85;14.60;;;0.00;97.40;;;;;;5010345;28;20042;-91
2021/01/09 10:03:08;;;;;;;31.83;16.67;;;0.10;97.40;;;;;;5016058;28;20401;-91
2021/01/09 10:05:34;;;;;;;31.13;17.25;;;0.20;97.50;;;;;;5013245;28;20172;-92
2021/01/09 10:08:14;;;;;;;31.83;18.25;;;0.30;97.50;;;;;;5013881;28;20037;-92
2021/01/09 10:10:40;;;;;;;32.70;17.40;;;0.50;97.50;;;;;;5014790;28;20026;-93
2021/01/09 10:13:06;;;;;;;36.13;20.63;;;0.60;97.30;;;;;;5006711;28;20026;-92
2021/01/09 10:15:32;;;;;;;34.25;21.00;;;0.60;97.10;;;;;;5013977;28;20030;-92
2021/01/09 10:18:00;;;;;;;35.67;21.30;;;0.60;97.00;;;;;;5014199;28;20053;-93
2021/01/09 10:20:27;;;;;;;41.20;23.10;;;0.50;97.00;;;;;;5018729;28;20128;-93
2021/01/09 10:22:53;;;;;;;35.10;21.77;;;0.50;97.10;;;;;;5017247;28;20088;-92
2021/01/09 10:25:18;;;;;;;34.75;19.88;;;0.50;97.10;;;;;;5015724;28;20030;-91
2021/01/09 10:27:44;;;;;;;34.58;21.35;;;0.50;97.20;;;;;;5015311;28;20068;-93
2021/01/09 10:30:10;;;;;;;36.90;19.90;;;0.60;97.30;;;;;;5010915;28;20109;-92
2021/01/09 10:32:36;;;;;;;42.13;23.20;;;0.60;97.30;;;;;;5015111;28;20096;-92
2021/01/09 10:35:02;;;;;;;35.33;21.63;;;0.70;97.40;;;;;;5018144;28;20018;-93
2021/01/09 10:37:27;;;;;;;31.55;19.73;;;0.80;97.40;;;;;;5008547;28;20030;-94
2021/01/09 10:39:53;;;;;;;36.88;21.60;;;0.90;97.40;;;;;;5024267;28;20021;-93
2021/01/09 10:42:18;;;;;;;35.53;20.17;;;0.90;97.30;;;;;;5015609;28;20119;-92
2021/01/09 10:44:44;;;;;;;32.50;20.17;;;1.00;97.30;;;;;;5012771;28;20034;-93
2021/01/09 10:47:09;;;;;;;39.88;24.17;;;1.00;97.30;;;;;;5012708;28;20034;-93
2021/01/09 10:49:35;;;;;;;36.90;22.73;;;1.10;97.30;;;;;;5012580;28;20567;-93
2021/01/09 10:52:00;;;;;;;34.67;21.80;;;1.10;97.20;;;;;;5011197;28;20037;-92
2021/01/09 10:54:26;;;;;;;36.50;20.55;;;1.20;97.20;;;;;;5011398;28;20030;-93
2021/01/09 10:56:51;;;;;;;33.45;19.05;;;1.20;97.30;;;;;;4995544;28;20022;-92
2021/01/09 10:59:17;;;;;;;27.65;17.35;;;1.30;97.40;;;;;;5012426;28;20033;-92
2021/01/09 11:01:42;;;;;;;34.55;17.58;;;1.40;97.50;;;;;;5013992;28;20053;-92
2021/01/09 11:04:08;;;;;;;28.00;18.50;;;1.50;97.50;;;;;;5012617;28;20065;-92
2021/01/09 11:06:34;;;;;;;24.63;15.88;;;1.60;97.40;;;;;;5015048;28;20212;-92
2021/01/09 11:08:59;;;;;;;30.23;17.67;;;1.60;97.30;;;;;;5015031;28;20030;-93
2021/01/09 11:11:25;;;;;;;28.00;16.00;;;1.70;97.40;;;;;;5015346;28;20037;-92
2021/01/09 11:13:51;;;;;;;27.73;17.45;;;1.70;97.30;;;;;;5015342;28;20060;-92
2021/01/09 11:16:21;;;;;;;24.75;16.35;;;1.70;97.30;;;;;;5011368;28;20049;-93
2021/01/09 11:18:47;;;;;;;29.75;15.75;;;1.70;97.40;;;;;;5013198;28;20042;-92
2021/01/09 11:21:13;;;;;;;22.88;14.85;;;1.80;97.60;;;;;;5029745;28;20080;-92
2021/01/09 11:23:41;;;;;;;24.05;15.55;;;1.90;97.60;;;;;;5016769;28;20129;-92
2021/01/09 11:26:07;;;;;;;28.55;14.07;;;2.10;97.50;;;;;;5015457;28;20026;-91
2021/01/09 11:28:32;;;;;;;22.63;13.60;;;2.20;97.40;;;;;;5013549;28;20092;-91
2021/01/09 11:30:58;;;;;;;21.83;13.63;;;2.20;97.30;;;;;;5014680;28;20029;-92
2021/01/09 11:33:24;;;;;;;25.25;12.90;;;2.30;97.20;;;;;;5014248;28;20030;-91
2021/01/09 11:35:49;;;;;;;23.38;11.23;;;2.40;97.20;;;;;;5013473;28;20022;-92
2021/01/09 11:38:15;;;;;;;18.55;11.40;;;2.50;97.20;;;;;;5013776;28;20037;-91
2021/01/09 11:40:40;;;;;;;21.38;11.25;;;2.50;97.10;;;;;;5015269;28;20026;-91
2021/01/09 11:43:06;;;;;;;23.58;12.15;;;2.60;97.10;;;;;;5014397;28;20097;-91
2021/01/09 11:45:31;;;;;;;18.88;9.80;;;2.70;97.20;;;;;;5029394;28;20031;-91
2021/01/09 11:47:57;;;;;;;18.60;8.88;;;2.80;97.20;;;;;;5011634;28;20053;-89
2021/01/09 11:50:22;;;;;;;17.52;7.72;;;2.90;97.20;;;;;;5010747;28;20042;-92
2021/01/09 11:52:48;;;;;;;17.33;7.35;;;3.10;97.30;;;;;;5010597;28;20033;-92
2021/01/09 11:55:14;;;;;;;20.02;7.43;;;3.30;97.30;;;;;;5006105;28;20081;-91
2021/01/09 11:57:39;;;;;;;16.73;6.68;;;3.40;97.10;;;;;;5014117;28;20402;-93
2021/01/09 12:00:11;;;;;;;16.83;6.93;;;3.50;97.20;;;;;;5011420;28;20129;-93
2021/01/09 12:02:39;;;;;;;14.70;5.97;;;3.50;96.70;;;;;;5004658;28;20037;-91
2021/01/09 12:05:09;;;;;;;10.85;6.03;;;3.50;96.60;;;;;;5016288;28;20044;-92
2021/01/09 12:07:35;;;;;;;12.07;6.10;;;3.50;96.60;;;;;;5022704;28;20033;-91
2021/01/09 12:10:03;;;;;;;13.23;5.00;;;3.50;96.70;;;;;;5005253;28;20029;-91
2021/01/09 12:12:28;;;;;;;10.73;5.40;;;3.60;96.90;;;;;;5014210;28;20026;-91
2021/01/09 12:14:54;;;;;;;14.18;6.57;;;3.60;96.90;;;;;;5016476;28;20506;-90
2021/01/09 12:17:19;;;;;;;10.75;5.72;;;3.80;96.90;;;;;;5011755;28;20097;-89
2021/01/09 12:19:45;;;;;;;7.88;4.40;;;3.90;96.80;;;;;;5012663;28;20096;-91
2021/01/09 12:22:11;;;;;;;10.20;3.58;;;4.10;96.80;;;;;;5012764;28;20026;-91
2021/01/09 12:24:36;;;;;;;12.68;4.45;;;4.20;96.60;;;;;;5003536;28;20041;-91
2021/01/09 12:27:02;;;;;;;9.05;4.38;;;4.30;96.50;;;;;;5035766;28;20018;-91
2021/01/09 12:29:27;;;;;;;9.30;4.43;;;4.30;96.40;;;;;;5013563;28;20053;-92
2021/01/09 12:31:53;;;;;;;10.20;4.97;;;4.40;96.30;;;;;;5006861;28;20033;-92
2021/01/09 12:34:19;;;;;;;15.02;5.25;;;4.50;96.20;;;;;;5001979;28;20076;-91
2021/01/09 12:36:50;;;;;;;9.77;5.55;;;4.60;96.30;;;;;;5018173;28;20034;-89
2021/01/09 12:39:15;;;;;;;11.02;5.35;;;4.70;96.10;;;;;;5017727;28;20397;-89